Flight Track Log - Related Links

Times and Time Zones

All times are in EDT time to prevent confusion due to time zone crossing. See the DAL2033 flight status page for this flight to view local times or setup timezone preferences in your user account.


Time Position Orientation Groundspeed Altitude Reporting Facility
EDT Latitude Longitude Course Direction KTS MPH feet Rate Location/Type
Wed 06:17:27 PM 42.6858 -73.8183 194° South 205 236 2,100  Level Boston Center
Wed 06:18:22 PM 42.7036 -73.8922 288° West 275 316 4,300 2,389 Climbing Boston Center
Wed 06:19:00 PM 42.8209 -74.2209 279° West  Level FlightAware Approximate
Wed 06:19:15 PM 42.7489 -73.9386 323° Northwest 283 326 6,400  Level Boston Center
Wed 06:20:00 PM 42.8398 -74.3721 283° West  Level FlightAware Approximate
Wed 06:20:15 PM 42.8064 -74.0022 321° Northwest 283 326 8,700  Level Boston Center
Wed 06:21:00 PM 42.8648 -74.5219 283° West  Level FlightAware Approximate
Wed 06:21:15 PM 42.8661 -74.0661 322° Northwest 283 326 10,600  Level Boston Center
Wed 06:22:00 PM 42.9013 -74.6611 282° West  Level FlightAware Approximate
Wed 06:22:15 PM 42.9503 -74.1450 326° Northwest 301 346 11,800  Level Boston Center
Wed 06:23:15 PM 43.0414 -74.1844 342° North 354 407 13,000 1,750 Climbing Boston Center
Wed 06:24:15 PM 43.1594 -74.2419 340° North 402 463 15,300 2,000 Climbing Boston Center
Wed 06:25:15 PM 43.2586 -74.2903 340° North 416 479 17,000 2,300 Climbing Boston Center
Wed 06:26:15 PM 43.3806 -74.3569 338° Northwest 426 490 19,900 2,500 Climbing Boston Center
Wed 06:27:15 PM 43.4369 -74.4644 306° West 396 456 22,000 1,600 Climbing Boston Center
Wed 06:28:15 PM 43.4219 -74.6042 262° West 317 365 23,100 1,000 Climbing Boston Center
Wed 06:29:15 PM 43.4006 -74.7433 258° West 341 392 24,000 1,050 Climbing Boston Center
Wed 06:30:15 PM 43.3786 -74.8883 258° West 372 428 25,200 1,150 Climbing Boston Center
Wed 06:31:15 PM 43.3569 -75.0303 258° West 384 442 26,300 1,000 Climbing Boston Center
Wed 06:32:15 PM 43.3347 -75.1692 258° West 391 450 27,200 1,100 Climbing Boston Center
Wed 06:33:15 PM 43.3119 -75.3308 259° West 403 464 28,500 950 Climbing Boston Center
Wed 06:34:15 PM 43.2878 -75.4667 256° West 409 471 29,100 650 Climbing Boston Center
Wed 06:35:15 PM 43.2586 -75.6133 255° West 409 471 29,800 550 Climbing Boston Center
Wed 06:36:15 PM 43.2233 -75.7569 251° West 409 471 30,200 600 Climbing Boston Center
Wed 06:37:15 PM 43.1856 -75.9058 251° West 415 478 31,000 750 Climbing Boston Center
Wed 06:38:15 PM 43.1475 -76.0575 251° West 420 483 31,700 299 Climbing Boston Center
Wed 06:40:36 PM 43.0525 -76.4233 251° West 427 491 32,000 90 Climbing Cleveland Center
Wed 06:41:36 PM 43.0139 -76.5708 250° West 422 486 32,000  Level Cleveland Center
Wed 06:42:36 PM 42.9772 -76.7178 251° West 417 480 32,000  Level Cleveland Center
Wed 06:43:36 PM 42.9361 -76.8681 250° West 417 480 32,000  Level Cleveland Center
Wed 06:44:36 PM 42.8950 -77.0150 249° West 417 480 32,000  Level Cleveland Center
Wed 06:45:36 PM 42.8492 -77.1592 247° West 412 474 32,000  Level Cleveland Center
Wed 06:46:36 PM 42.8033 -77.2975 246° West 412 474 32,000  Level Cleveland Center
Wed 06:47:36 PM 42.7569 -77.4358 245° Southwest 407 468 32,000  Level Cleveland Center
Wed 06:48:36 PM 42.7225 -77.5478 247° West 402 463 32,000  Level Cleveland Center
Wed 06:49:36 PM 42.6622 -77.7200 245° Southwest 402 463 32,000  Level Cleveland Center
Wed 06:50:36 PM 42.6239 -77.8489 248° West 407 468 32,000  Level Cleveland Center
Wed 06:51:36 PM 42.5769 -77.9892 246° West 407 468 32,000  Level Cleveland Center
Wed 06:52:36 PM 42.5322 -78.1289 247° West 407 468 32,000  Level Cleveland Center
Wed 06:53:36 PM 42.4869 -78.2686 246° West 407 468 32,000  Level Cleveland Center
Wed 06:54:36 PM 42.4397 -78.4083 245° Southwest 407 468 32,000  Level Cleveland Center
Wed 06:55:36 PM 42.3922 -78.5422 244° Southwest 402 463 32,000  Level Cleveland Center
Wed 06:56:36 PM 42.3444 -78.6814 245° Southwest 402 463 32,000  Level Cleveland Center
Wed 06:57:36 PM 42.2967 -78.8231 246° West 402 463 32,000  Level Cleveland Center
Wed 06:58:36 PM 42.2467 -78.9619 244° Southwest 402 463 32,000  Level Cleveland Center
Wed 06:59:36 PM 42.1964 -79.1006 244° Southwest 407 468 32,000  Level Cleveland Center
Wed 07:00:36 PM 42.1586 -79.2414 250° West 402 463 32,000  Level Cleveland Center
Wed 07:01:36 PM 42.1206 -79.3850 250° West 402 463 32,000  Level Cleveland Center
Wed 07:02:36 PM 42.0844 -79.5283 251° West 402 463 32,000  Level Cleveland Center
Wed 07:03:36 PM 42.0461 -79.6717 250° West 409 471 32,000  Level Cleveland Center
Wed 07:04:36 PM 42.0094 -79.8147 251° West 409 471 32,000  Level Cleveland Center
Wed 07:05:36 PM 41.9689 -79.9744 251° West 409 471 32,000  Level Cleveland Center
Wed 07:06:36 PM 41.9297 -80.1169 250° West 406 467 32,000  Level Cleveland Center
Wed 07:07:36 PM 41.8553 -80.2208 226° Southwest 391 450 32,000  Level Cleveland Center
Wed 07:08:36 PM 41.7594 -80.2908 209° Southwest 391 450 32,000  Level Cleveland Center
Wed 07:09:36 PM 41.6867 -80.3803 223° Southwest 398 458 32,000  Level Cleveland Center
Wed 07:10:36 PM 41.6139 -80.4914 229° Southwest 398 458 32,000  Level Cleveland Center
Wed 07:11:36 PM 41.5411 -80.5997 228° Southwest 398 458 32,000  Level Cleveland Center
Wed 07:12:36 PM 41.4681 -80.7106 229° Southwest 398 458 32,000  Level Cleveland Center
Wed 07:13:36 PM 41.3906 -80.8211 227° Southwest 411 473 32,000  Level Cleveland Center
Wed 07:14:36 PM 41.3092 -80.9425 228° Southwest 411 473 32,000  Level Cleveland Center
Wed 07:15:36 PM 41.2314 -81.0553 227° Southwest 406 467 32,000  Level Cleveland Center
Wed 07:16:36 PM 41.1558 -81.1650 228° Southwest 406 467 32,000  Level Cleveland Center
Wed 07:17:36 PM 41.0822 -81.2744 228° Southwest 406 467 32,000  Level Cleveland Center
Wed 07:18:36 PM 41.0044 -81.3783 225° Southwest 406 467 32,000  Level Cleveland Center
Wed 07:19:36 PM 40.9308 -81.4900 229° Southwest 406 467 32,000  Level Cleveland Center
Wed 07:20:36 PM 40.8611 -81.5881 227° Southwest 411 473 32,000  Level Cleveland Center
Wed 07:22:46 PM 40.6992 -81.8186 227° Southwest 403 464 32,000  Level Indianapolis Center
Wed 07:23:47 PM 40.6211 -81.9283 227° Southwest 404 465 32,000  Level Indianapolis Center
Wed 07:24:49 PM 40.5292 -82.0075 213° Southwest 403 464 32,000  Level Indianapolis Center
Wed 07:25:50 PM 40.4197 -82.0392 192° South 398 458 32,000  Level Indianapolis Center
Wed 07:26:51 PM 40.2928 -82.0703 191° South 395 455 32,000  Level Indianapolis Center
Wed 07:27:53 PM 40.1844 -82.0969 191° South 393 452 32,000  Level Indianapolis Center
Wed 07:28:54 PM 40.0750 -82.1219 190° South 394 453 32,000  Level Indianapolis Center
Wed 07:29:55 PM 39.9664 -82.1481 190° South 393 452 32,000  Level Indianapolis Center
Wed 07:30:57 PM 39.8569 -82.1725 190° South 393 452 32,000  Level Indianapolis Center
Wed 07:31:58 PM 39.7467 -82.1978 190° South 397 457 32,000  Level Indianapolis Center
Wed 07:32:59 PM 39.6381 -82.2222 190° South 392 451 32,000  Level Indianapolis Center
Wed 07:34:01 PM 39.5286 -82.2464 190° South 395 455 32,000  Level Indianapolis Center
Wed 07:35:02 PM 39.4294 -82.2672 189° South 395 455 32,000  Level Indianapolis Center
Wed 07:36:03 PM 39.2994 -82.2947 189° South 398 458 32,000  Level Indianapolis Center
Wed 07:37:05 PM 39.1917 -82.3206 191° South 396 456 32,000  Level Indianapolis Center
Wed 07:38:06 PM 39.0842 -82.3447 190° South 394 453 32,000  Level Indianapolis Center
Wed 07:39:08 PM 38.9736 -82.3708 190° South 403 464 32,000  Level Indianapolis Center
Wed 07:40:09 PM 38.8650 -82.3956 190° South 399 459 32,000  Level Indianapolis Center
Wed 07:41:10 PM 38.7550 -82.4200 190° South 402 463 32,000  Level Indianapolis Center
Wed 07:42:12 PM 38.6442 -82.4456 190° South 405 466 32,000  Level Indianapolis Center
Wed 07:43:13 PM 38.5342 -82.4700 190° South 404 465 32,000  Level Indianapolis Center
Wed 07:44:14 PM 38.4128 -82.4961 190° South 399 459 32,000  Level Indianapolis Center
Wed 07:45:16 PM 38.3019 -82.5203 190° South 402 463 32,000  Level Indianapolis Center
Wed 07:46:17 PM 38.1922 -82.5461 190° South 402 463 32,000  Level Indianapolis Center
Wed 07:47:19 PM 38.0633 -82.5778 191° South 402 463 32,000  Level Indianapolis Center
Wed 07:48:20 PM 37.9503 -82.6011 189° South 409 471 32,000  Level Indianapolis Center
Wed 07:49:21 PM 37.8386 -82.6267 190° South 409 471 32,000  Level Indianapolis Center
Wed 07:50:23 PM 37.7267 -82.6503 189° South 408 470 32,000  Level Indianapolis Center
Wed 07:51:24 PM 37.6133 -82.6758 190° South 411 473 32,000  Level Indianapolis Center
Wed 07:52:25 PM 37.5150 -82.7522 212° Southwest 416 479 32,000  Level Indianapolis Center
Wed 07:53:27 PM 37.4200 -82.8333 214° Southwest 413 475 32,000  Level Indianapolis Center
Wed 07:54:28 PM 37.3286 -82.9186 217° Southwest 412 474 32,000  Level Indianapolis Center
Wed 07:55:29 PM 37.2222 -83.0208 217° Southwest 416 479 32,000  Level Indianapolis Center
Wed 07:56:31 PM 37.1342 -83.1144 220° Southwest 418 481 32,000  Level Indianapolis Center
Wed 07:57:32 PM 37.0464 -83.2075 220° Southwest 419 482 32,000  Level Indianapolis Center
Wed 07:58:33 PM 36.9619 -83.3022 222° Southwest 414 476 32,000  Level Indianapolis Center
Wed 07:59:35 PM 36.8775 -83.3989 222° Southwest 415 478 32,000  Level Indianapolis Center
Wed 08:00:36 PM 36.7925 -83.4947 222° Southwest 414 476 32,000  Level Indianapolis Center
Wed 08:01:38 PM 36.6939 -83.6025 221° Southwest 408 470 32,000  Level Indianapolis Center
Wed 08:02:39 PM 36.6069 -83.6964 221° Southwest 411 473 32,000  Level Indianapolis Center
Wed 08:03:40 PM 36.5203 -83.7900 221° Southwest 414 476 32,000  Level Indianapolis Center
Wed 08:04:42 PM 36.4239 -83.8275 197° South 408 470 32,000  Level Indianapolis Center
Wed 08:05:43 PM 36.2881 -83.7892 167° South 411 473 32,000  Level Indianapolis Center
Wed 08:06:44 PM 36.1747 -83.7550 166° South 413 475 32,000  Level Indianapolis Center
Wed 08:07:44 PM 36.0619 -83.7203 166° South 415 478 32,000  Level Atlanta Center
Wed 08:08:44 PM 35.9514 -83.6872 166° South 415 478 32,000  Level Atlanta Center
Wed 08:09:44 PM 35.8344 -83.6519 166° South 415 478 32,000  Level Atlanta Center
Wed 08:10:44 PM 35.7156 -83.6525 180° South 415 478 32,000  Level Atlanta Center
Wed 08:11:44 PM 35.6133 -83.6708 188° South 415 478 32,000  Level Atlanta Center
Wed 08:12:44 PM 35.4967 -83.6969 190° South 421 484 32,000 -250 Level Atlanta Center
Wed 08:13:44 PM 35.3800 -83.7228 190° South 426 490 31,500 -1,250 Descending Atlanta Center
Wed 08:14:44 PM 35.2653 -83.7489 191° South 426 490 29,500 -2,050 Descending Atlanta Center
Wed 08:15:44 PM 35.1442 -83.7719 189° South 431 496 27,400 -1,750 Descending Atlanta Center
Wed 08:16:44 PM 35.0253 -83.7978 190° South 431 496 26,000 -1,450 Descending Atlanta Center
Wed 08:17:44 PM 34.9128 -83.8261 192° South 424 488 24,500 -1,000 Descending Atlanta Center
Wed 08:18:44 PM 34.7875 -83.8492 189° South 418 481 24,000 -250 Descending Atlanta Center
Wed 08:19:44 PM 34.6750 -83.8694 188° South 413 475 24,000 -700 Level Atlanta Center
Wed 08:20:44 PM 34.5622 -83.8950 191° South 413 475 22,600 -2,700 Descending Atlanta Center
Wed 08:21:44 PM 34.4475 -83.9203 190° South 413 475 18,600 -3,300 Descending Atlanta Center
Wed 08:22:44 PM 34.3328 -83.9431 189° South 424 488 16,000 -2,700 Descending Atlanta Center
Wed 08:23:44 PM 34.2283 -83.9658 190° South 410 472 13,200 -1,650 Descending Atlanta Center
Wed 08:24:44 PM 34.1408 -83.9886 192° South 350 403 12,700 -843 Descending Atlanta Center
Wed 08:25:45 PM 34.0667 -83.9833 177° South 290 334 11,500 -1,339 Descending Atlanta TRACON
Wed 08:26:45 PM 33.9833 -83.9833 180° South 283 326 10,000 -1,250 Descending Atlanta TRACON
Wed 08:27:45 PM 33.9000 -83.9833 180° South 278 320 9,000 -504 Descending Atlanta TRACON
Wed 08:28:44 PM 33.8361 -83.9764 175° South 284 327 9,000 -252 Level Atlanta Center
Wed 08:29:44 PM 33.7586 -83.9689 175° South 279 321 8,500 -1,050 Descending Atlanta Center
Wed 08:30:44 PM 33.6772 -83.9689 180° South 273 314 6,900 -750 Descending Atlanta Center
Wed 08:31:44 PM 33.6272 -84.0314 226° Southwest 233 268 7,000 -770 Climbing Atlanta Center
Wed 08:33:51 PM 33.6333 -84.2000 273° West 232 267 4,500 -1,160 Descending Atlanta TRACON
Wed 08:34:45 PM 33.6333 -84.2667 270° West 212 244 3,500 -1,053 Descending Atlanta TRACON
Wed 08:35:45 PM 33.6333 -84.3167 270° West 188 216 2,500 -1,000 Descending Atlanta TRACON

Login

Don't have an account? Register now (free) for customized features, flight alerts, and more!